Aeroporto :
LOGIN :

Iscrizione | Disclaimer

   EN    FR    IT 

 










Sommario :    VFR   VFR Marginale   IFR   IFR Intensivo   IFR Molto Intensivo
Visibilità : 
Base nubi : 
>= 8 km
>= 3000ft
5 / 8 km
1000 / 3000 ft
1500m / 5 km
500 / 1000 ft
800 / 1500m
200 / 500 ft
< 800m
< 200 ft
Simboli :   Temporali  Nebbia  Neve Forte  Precipitazioni Forti  Vento > 20 kt
SIGMETs :   Varie  Temporali  Ghiacco  Turbolenza  Onda orograficha  Ceneri Vulcaniche






- Altitudine del aeroporto : 302 ft
- Codice IATA : SJY


EFSI - Seinäjoki

ULTIMO METAR :
  • 061750Z AUTO 19003KT 3700 BR SCT001 BKN016 OVC022 02/02 Q0983

METARs OBSOLETI :
  • 061720Z AUTO 17002KT 2100 BR FEW001 SCT013 BKN029 BKN050 02/02 Q0983
  • 061650Z AUTO 19001KT 5000 FEW001 BKN013 BKN024 OVC034 01/01 Q0983
  • 061620Z AUTO 18001KT 9999 FEW001 SCT018 BKN029 01/01 Q0983
  • 061550Z AUTO 15001KT 9999 FEW006 SCT031 BKN110 00/00 Q0983
  • 061520Z AUTO 00000KT 1600 BR BKN105 00/00 Q0983

Previsioni scadute.



MetMap, La meteo Aeronautica in un colpo d'occhio ! - Copyright ORBIFLY Dicembre 2007 - Disclaimer

ORBIFLY MET'MAP TEAM :

Programmazione e sviluppo : Alexandra Zaïnal
Concezione : Baudouin d'Aumeries
Aiuto per la programmazione : Marc-Olivier Méhu
Supporto tecnico e logistico : Manuel Goepfert
Aiuto per la traduzione : Arnaldo La Scala

Contatto : metmap@orbifly.com




FONTI E CREDITI :

   NOAA